Osterville, Massachusetts
Current Conditions -  °F | °C
As of 3:56 PM on Tuesday 27 Jan 2015 (Local Time) from KHYA Reporting Station
Heavy Snow Heavy Snow  
Wind Chill:   Ceiling: 300
Heat Index: 23°   Visibility: 0mi
Dew Point: 21°   Wind: 30mph
Humidity: 92%   Direction: 330°NNW
Pressure: 29.27"   Gusts: 48mph
Location:  41.63°N, 70.39°W
Report Text: KHYA 272056Z 33026G42KT M1/4SM +SN BLSN FZFG VV003 M05/M06 A2927 RMK AO2 PK WND 33045/2042 SLP914 P0002 60009 T10501061 53015 $
Loading
Personal Weather Stations






























Interactive Weather Map New forecast layout! Learn more

10-Day Weather Forecast

Advertisements
Track Severe Weather on mobile